createdAt,value
2016-07-20T00:00:05.278Z,1014.61
2016-07-20T00:00:15.274Z,1014.62
2016-07-20T00:00:25.271Z,1014.65
2016-07-20T00:00:35.266Z,1014.63
2016-07-20T00:00:45.263Z,1014.63
2016-07-20T00:00:55.258Z,1014.61
2016-07-20T00:01:05.253Z,1014.63
2016-07-20T00:01:15.249Z,1014.6
2016-07-20T00:01:25.244Z,1014.6
2016-07-20T00:01:35.241Z,1014.61
2016-07-20T00:01:45.234Z,1014.57
2016-07-20T00:01:55.232Z,1014.62
2016-07-20T00:02:05.227Z,1014.58
2016-07-20T00:02:15.223Z,1014.57
2016-07-20T00:02:25.218Z,1014.57
2016-07-20T00:02:35.212Z,1014.58
2016-07-20T00:02:45.211Z,1014.59
2016-07-20T00:02:55.207Z,1014.58
2016-07-20T00:03:05.200Z,1014.54
2016-07-20T00:03:15.196Z,1014.57
2016-07-20T00:03:25.194Z,1014.57
2016-07-20T00:03:35.188Z,1014.54
2016-07-20T00:03:45.185Z,1014.53
2016-07-20T00:03:55.179Z,1014.58
2016-07-20T00:04:05.174Z,1014.57
2016-07-20T00:04:15.173Z,1014.54
2016-07-20T00:04:25.166Z,1014.55
2016-07-20T00:04:35.162Z,1014.56
2016-07-20T00:04:45.165Z,1014.51
2016-07-20T00:04:55.154Z,1014.5
2016-07-20T00:05:05.149Z,1014.53
2016-07-20T00:05:15.143Z,1014.56
2016-07-20T00:05:25.140Z,1014.56
2016-07-20T00:05:35.144Z,1014.49
2016-07-20T00:05:45.131Z,1014.48
2016-07-20T00:05:55.128Z,1014.52
2016-07-20T00:06:05.126Z,1014.52
2016-07-20T00:06:15.124Z,1014.53
2016-07-20T00:06:25.117Z,1014.5
2016-07-20T00:06:35.111Z,1014.51
2016-07-20T00:06:45.106Z,1014.51
2016-07-20T00:06:55.101Z,1014.5
2016-07-20T00:07:05.096Z,1014.52
2016-07-20T00:07:15.093Z,1014.53
2016-07-20T00:07:25.089Z,1014.47
2016-07-20T00:07:35.084Z,1014.5
2016-07-20T00:07:45.081Z,1014.53
2016-07-20T00:07:55.079Z,1014.52
2016-07-20T00:08:05.073Z,1014.52
2016-07-20T00:08:15.071Z,1014.45
2016-07-20T00:08:25.062Z,1014.49
2016-07-20T00:08:35.060Z,1014.49
2016-07-20T00:08:45.056Z,1014.51
2016-07-20T00:08:55.052Z,1014.51
2016-07-20T00:09:05.048Z,1014.47
2016-07-20T00:09:15.044Z,1014.48
2016-07-20T00:09:25.037Z,1014.49
2016-07-20T00:09:35.037Z,1014.49
2016-07-20T00:09:45.028Z,1014.45
2016-07-20T00:09:55.026Z,1014.47
2016-07-20T00:10:05.022Z,1014.51
2016-07-20T00:10:15.015Z,1014.53
2016-07-20T00:10:25.016Z,1014.5
2016-07-20T00:10:35.009Z,1014.46
2016-07-20T00:10:45.004Z,1014.52
2016-07-20T00:10:54.998Z,1014.49
2016-07-20T00:11:05.003Z,1014.49
2016-07-20T00:11:14.991Z,1014.46
2016-07-20T00:11:24.989Z,1014.47
2016-07-20T00:11:34.981Z,1014.48
2016-07-20T00:11:44.976Z,1014.49
2016-07-20T00:11:54.972Z,1014.49
2016-07-20T00:12:04.968Z,1014.53
2016-07-20T00:12:14.963Z,1014.48
2016-07-20T00:12:24.959Z,1014.49
2016-07-20T00:12:34.952Z,1014.45
2016-07-20T00:12:44.954Z,1014.46
2016-07-20T00:12:54.949Z,1014.43
2016-07-20T00:13:04.943Z,1014.45
2016-07-20T00:13:14.941Z,1014.48
2016-07-20T00:13:24.939Z,1014.46
2016-07-20T00:13:34.928Z,1014.42
2016-07-20T00:13:44.925Z,1014.41
2016-07-20T00:13:54.922Z,1014.45
2016-07-20T00:14:04.918Z,1014.44
2016-07-20T00:14:14.911Z,1014.45
2016-07-20T00:14:24.908Z,1014.47
2016-07-20T00:14:34.905Z,1014.43
2016-07-20T00:14:44.900Z,1014.46
2016-07-20T00:14:54.895Z,1014.43
2016-07-20T00:15:04.896Z,1014.48
2016-07-20T00:15:14.886Z,1014.46
2016-07-20T00:15:24.882Z,1014.45
2016-07-20T00:15:34.877Z,1014.44
2016-07-20T00:15:44.874Z,1014.47
2016-07-20T00:15:54.878Z,1014.47
2016-07-20T00:16:04.866Z,1014.44
2016-07-20T00:16:14.862Z,1014.42
2016-07-20T00:16:24.856Z,1014.42
2016-07-20T00:16:34.854Z,1014.49
2016-07-20T00:16:44.849Z,1014.41
2016-07-20T00:16:54.844Z,1014.42
2016-07-20T00:17:04.841Z,1014.45
2016-07-20T00:17:14.834Z,1014.4
2016-07-20T00:17:24.832Z,1014.45
2016-07-20T00:17:34.826Z,1014.41
2016-07-20T00:17:44.822Z,1014.44
2016-07-20T00:17:54.818Z,1014.42
2016-07-20T00:18:04.815Z,1014.41
2016-07-20T00:18:14.811Z,1014.47
2016-07-20T00:18:25.535Z,1014.41
2016-07-20T00:18:34.804Z,1014.44
2016-07-20T00:18:44.798Z,1014.42
2016-07-20T00:18:54.791Z,1014.41
2016-07-20T00:19:04.787Z,1014.38
2016-07-20T00:19:14.785Z,1014.43
2016-07-20T00:19:24.781Z,1014.43
2016-07-20T00:19:34.775Z,1014.4
2016-07-20T00:19:44.768Z,1014.44
2016-07-20T00:19:54.769Z,1014.39
2016-07-20T00:20:04.762Z,1014.44
2016-07-20T00:20:14.759Z,1014.45
2016-07-20T00:20:24.752Z,1014.41
2016-07-20T00:20:34.748Z,1014.41
2016-07-20T00:20:44.742Z,1014.4
2016-07-20T00:20:54.742Z,1014.37
2016-07-20T00:21:04.737Z,1014.37
2016-07-20T00:21:14.733Z,1014.4
2016-07-20T00:21:24.730Z,1014.39
2016-07-20T00:21:34.725Z,1014.4
2016-07-20T00:21:44.719Z,1014.39
2016-07-20T00:21:54.714Z,1014.39
2016-07-20T00:22:04.710Z,1014.42
2016-07-20T00:22:14.704Z,1014.41
2016-07-20T00:22:24.702Z,1014.43
2016-07-20T00:22:34.699Z,1014.4
2016-07-20T00:22:44.691Z,1014.35
2016-07-20T00:22:54.697Z,1014.36
2016-07-20T00:23:04.686Z,1014.39
2016-07-20T00:23:14.679Z,1014.4
2016-07-20T00:23:24.675Z,1014.41
2016-07-20T00:23:34.677Z,1014.42
2016-07-20T00:23:44.667Z,1014.39
2016-07-20T00:23:54.663Z,1014.37
2016-07-20T00:24:05.385Z,1014.41
2016-07-20T00:24:14.655Z,1014.39
2016-07-20T00:24:24.649Z,1014.42
2016-07-20T00:24:34.648Z,1014.38
2016-07-20T00:24:44.648Z,1014.42
2016-07-20T00:24:54.639Z,1014.4
2016-07-20T00:25:04.635Z,1014.38
2016-07-20T00:25:14.635Z,1014.39
2016-07-20T00:25:24.625Z,1014.41
2016-07-20T00:25:34.621Z,1014.4
2016-07-20T00:25:44.619Z,1014.36
2016-07-20T00:25:54.613Z,1014.38
2016-07-20T00:26:04.607Z,1014.35
2016-07-20T00:26:14.606Z,1014.38
2016-07-20T00:26:24.601Z,1014.4
2016-07-20T00:26:34.596Z,1014.39
2016-07-20T00:26:44.592Z,1014.38
2016-07-20T00:26:54.584Z,1014.38
2016-07-20T00:27:04.584Z,1014.42
2016-07-20T00:27:14.580Z,1014.41
2016-07-20T00:27:24.581Z,1014.41
2016-07-20T00:27:34.571Z,1014.39
2016-07-20T00:27:44.566Z,1014.4
2016-07-20T00:27:54.564Z,1014.41
2016-07-20T00:28:04.556Z,1014.4
2016-07-20T00:28:14.554Z,1014.44
2016-07-20T00:28:24.545Z,1014.43
2016-07-20T00:28:34.544Z,1014.4
2016-07-20T00:28:44.540Z,1014.43
2016-07-20T00:28:54.533Z,1014.43
2016-07-20T00:29:04.533Z,1014.45
2016-07-20T00:29:14.526Z,1014.44
2016-07-20T00:29:24.520Z,1014.42
2016-07-20T00:29:34.515Z,1014.44
2016-07-20T00:29:44.510Z,1014.45
2016-07-20T00:29:54.509Z,1014.51
2016-07-20T00:30:04.505Z,1014.43
2016-07-20T00:30:14.503Z,1014.47
2016-07-20T00:30:24.500Z,1014.49
2016-07-20T00:30:34.494Z,1014.43
2016-07-20T00:30:44.489Z,1014.49
2016-07-20T00:30:54.483Z,1014.46
2016-07-20T00:31:04.486Z,1014.48
2016-07-20T00:31:14.476Z,1014.46
2016-07-20T00:31:24.472Z,1014.47
2016-07-20T00:31:34.467Z,1014.48
2016-07-20T00:31:44.460Z,1014.42
2016-07-20T00:31:54.457Z,1014.51
2016-07-20T00:32:04.453Z,1014.41
2016-07-20T00:32:14.448Z,1014.47
2016-07-20T00:32:24.445Z,1014.49
2016-07-20T00:32:34.439Z,1014.49
2016-07-20T00:32:44.435Z,1014.43
2016-07-20T00:32:54.430Z,1014.49
2016-07-20T00:33:04.426Z,1014.42
2016-07-20T00:33:14.425Z,1014.45
2016-07-20T00:33:24.418Z,1014.44
2016-07-20T00:33:34.415Z,1014.48
2016-07-20T00:33:44.410Z,1014.46
2016-07-20T00:33:54.404Z,1014.5
2016-07-20T00:34:04.404Z,1014.48
2016-07-20T00:34:14.399Z,1014.48
2016-07-20T00:34:24.392Z,1014.46
2016-07-20T00:34:34.391Z,1014.49
2016-07-20T00:34:44.384Z,1014.53
2016-07-20T00:34:54.382Z,1014.5
2016-07-20T00:35:04.378Z,1014.51
2016-07-20T00:35:14.373Z,1014.52
2016-07-20T00:35:24.381Z,1014.48
2016-07-20T00:35:34.366Z,1014.47
2016-07-20T00:35:44.360Z,1014.46
2016-07-20T00:35:54.357Z,1014.49
2016-07-20T00:36:04.355Z,1014.49
2016-07-20T00:36:14.348Z,1014.48
2016-07-20T00:36:24.345Z,1014.52
2016-07-20T00:36:34.339Z,1014.48
2016-07-20T00:36:44.335Z,1014.48
2016-07-20T00:36:54.334Z,1014.5
2016-07-20T00:37:04.324Z,1014.45
2016-07-20T00:37:14.324Z,1014.45
2016-07-20T00:37:24.320Z,1014.49
2016-07-20T00:37:34.314Z,1014.47
2016-07-20T00:37:44.307Z,1014.49
2016-07-20T00:37:54.305Z,1014.49
2016-07-20T00:38:04.300Z,1014.48
2016-07-20T00:38:14.296Z,1014.48
2016-07-20T00:38:24.291Z,1014.45
2016-07-20T00:38:34.287Z,1014.47
2016-07-20T00:38:44.282Z,1014.48
2016-07-20T00:38:54.276Z,1014.49
2016-07-20T00:39:04.273Z,1014.52
2016-07-20T00:39:14.280Z,1014.5
2016-07-20T00:39:24.264Z,1014.48
2016-07-20T00:39:34.261Z,1014.5
2016-07-20T00:39:44.255Z,1014.5
2016-07-20T00:39:54.249Z,1014.48
2016-07-20T00:40:04.249Z,1014.49
2016-07-20T00:40:14.240Z,1014.54
2016-07-20T00:40:24.235Z,1014.48
2016-07-20T00:40:34.242Z,1014.48
2016-07-20T00:40:44.230Z,1014.46
2016-07-20T00:40:54.224Z,1014.46
2016-07-20T00:41:04.223Z,1014.45
2016-07-20T00:41:14.217Z,1014.48
2016-07-20T00:41:24.212Z,1014.5
2016-07-20T00:41:34.209Z,1014.52
2016-07-20T00:41:44.209Z,1014.48
2016-07-20T00:41:54.199Z,1014.5
2016-07-20T00:42:04.193Z,1014.55
2016-07-20T00:42:14.192Z,1014.46
2016-07-20T00:42:24.187Z,1014.49
2016-07-20T00:42:34.185Z,1014.48
2016-07-20T00:42:44.179Z,1014.51
2016-07-20T00:42:54.189Z,1014.51
2016-07-20T00:43:04.171Z,1014.49
2016-07-20T00:43:14.167Z,1014.5
2016-07-20T00:43:24.160Z,1014.51
2016-07-20T00:43:34.157Z,1014.47
2016-07-20T00:43:44.154Z,1014.53
2016-07-20T00:43:54.150Z,1014.49
2016-07-20T00:44:04.146Z,1014.5
2016-07-20T00:44:14.140Z,1014.46
2016-07-20T00:44:24.136Z,1014.5
2016-07-20T00:44:34.131Z,1014.51
2016-07-20T00:44:44.128Z,1014.48
2016-07-20T00:44:54.124Z,1014.47
2016-07-20T00:45:04.122Z,1014.51
2016-07-20T00:45:14.115Z,1014.52
2016-07-20T00:45:24.108Z,1014.48
2016-07-20T00:45:34.105Z,1014.48
2016-07-20T00:45:44.101Z,1014.48
2016-07-20T00:45:54.096Z,1014.49
2016-07-20T00:46:04.093Z,1014.46
2016-07-20T00:46:14.088Z,1014.46
2016-07-20T00:46:24.081Z,1014.43
2016-07-20T00:46:34.081Z,1014.5
2016-07-20T00:46:44.073Z,1014.5
2016-07-20T00:46:54.070Z,1014.47
2016-07-20T00:47:04.068Z,1014.47
2016-07-20T00:47:14.061Z,1014.49
2016-07-20T00:47:24.057Z,1014.5
2016-07-20T00:47:34.053Z,1014.5
2016-07-20T00:47:44.046Z,1014.49
2016-07-20T00:47:54.045Z,1014.55
2016-07-20T00:48:04.038Z,1014.48
2016-07-20T00:48:14.042Z,1014.45
2016-07-20T00:48:24.029Z,1014.49
2016-07-20T00:48:34.027Z,1014.47
2016-07-20T00:48:44.021Z,1014.47
2016-07-20T00:48:54.017Z,1014.52
2016-07-20T00:49:04.015Z,1014.52
2016-07-20T00:49:14.010Z,1014.45
2016-07-20T00:49:24.006Z,1014.5
2016-07-20T00:49:34.001Z,1014.49
2016-07-20T00:49:43.995Z,1014.47
2016-07-20T00:49:53.992Z,1014.46
2016-07-20T00:50:03.988Z,1014.49
2016-07-20T00:50:13.984Z,1014.49
2016-07-20T00:50:23.980Z,1014.54
2016-07-20T00:50:33.976Z,1014.5
2016-07-20T00:50:44.713Z,1014.51
2016-07-20T00:50:53.968Z,1014.5
2016-07-20T00:51:03.962Z,1014.5
2016-07-20T00:51:13.957Z,1014.48
2016-07-20T00:51:23.953Z,1014.48
2016-07-20T00:51:33.950Z,1014.47
2016-07-20T00:51:43.947Z,1014.49
2016-07-20T00:51:53.941Z,1014.49
2016-07-20T00:52:03.938Z,1014.49
2016-07-20T00:52:13.932Z,1014.48
2016-07-20T00:52:23.928Z,1014.51
2016-07-20T00:52:33.923Z,1014.5
2016-07-20T00:52:43.918Z,1014.44
2016-07-20T00:52:53.916Z,1014.5
2016-07-20T00:53:03.909Z,1014.47
2016-07-20T00:53:13.909Z,1014.5
2016-07-20T00:53:23.903Z,1014.48
2016-07-20T00:53:33.899Z,1014.44
2016-07-20T00:53:43.893Z,1014.46
2016-07-20T00:53:53.901Z,1014.46
2016-07-20T00:54:04.614Z,1014.48
2016-07-20T00:54:13.880Z,1014.46
2016-07-20T00:54:23.877Z,1014.45
2016-07-20T00:54:33.870Z,1014.4
2016-07-20T00:54:43.869Z,1014.48
2016-07-20T00:54:53.863Z,1014.43
2016-07-20T00:55:03.856Z,1014.39
2016-07-20T00:55:13.854Z,1014.46
2016-07-20T00:55:23.849Z,1014.38
2016-07-20T00:55:33.846Z,1014.41
2016-07-20T00:55:43.839Z,1014.41
2016-07-20T00:55:53.836Z,1014.39
2016-07-20T00:56:03.834Z,1014.41
2016-07-20T00:56:13.828Z,1014.36
2016-07-20T00:56:23.820Z,1014.38
2016-07-20T00:56:33.818Z,1014.37
2016-07-20T00:56:43.813Z,1014.42
2016-07-20T00:56:53.808Z,1014.39
2016-07-20T00:57:03.805Z,1014.41
2016-07-20T00:57:13.800Z,1014.39
2016-07-20T00:57:23.801Z,1014.38
2016-07-20T00:57:33.792Z,1014.41
2016-07-20T00:57:43.789Z,1014.4
2016-07-20T00:57:53.784Z,1014.39
2016-07-20T00:58:03.784Z,1014.39
2016-07-20T00:58:13.774Z,1014.37
2016-07-20T00:58:23.769Z,1014.39
2016-07-20T00:58:33.767Z,1014.38
2016-07-20T00:58:43.763Z,1014.35
2016-07-20T00:58:53.757Z,1014.39
2016-07-20T00:59:03.755Z,1014.39
2016-07-20T00:59:13.756Z,1014.37
2016-07-20T00:59:23.745Z,1014.42
2016-07-20T00:59:33.742Z,1014.39
2016-07-20T00:59:43.739Z,1014.4
2016-07-20T00:59:53.735Z,1014.39
2016-07-20T01:00:03.729Z,1014.38
2016-07-20T01:00:13.726Z,1014.34
2016-07-20T01:00:23.725Z,1014.39
2016-07-20T01:00:33.717Z,1014.38
2016-07-20T01:00:43.711Z,1014.36
2016-07-20T01:00:53.708Z,1014.4
2016-07-20T01:01:03.704Z,1014.4
2016-07-20T01:01:13.699Z,1014.37
2016-07-20T01:01:23.694Z,1014.35
2016-07-20T01:01:33.691Z,1014.37
2016-07-20T01:01:43.684Z,1014.39
2016-07-20T01:01:53.683Z,1014.36
2016-07-20T01:02:03.682Z,1014.34
2016-07-20T01:02:13.672Z,1014.37
2016-07-20T01:02:23.666Z,1014.33
2016-07-20T01:02:33.667Z,1014.33
2016-07-20T01:02:43.659Z,1014.35
2016-07-20T01:02:53.655Z,1014.34
2016-07-20T01:03:03.649Z,1014.29
2016-07-20T01:03:13.645Z,1014.35
2016-07-20T01:03:23.642Z,1014.31
2016-07-20T01:03:33.637Z,1014.32
2016-07-20T01:03:43.632Z,1014.3
2016-07-20T01:03:53.629Z,1014.34
2016-07-20T01:04:03.624Z,1014.32
2016-07-20T01:04:13.622Z,1014.34
2016-07-20T01:04:23.614Z,1014.3
2016-07-20T01:04:33.610Z,1014.32
2016-07-20T01:04:43.607Z,1014.3
2016-07-20T01:04:53.601Z,1014.3
2016-07-20T01:05:03.596Z,1014.24
2016-07-20T01:05:13.594Z,1014.27
2016-07-20T01:05:23.589Z,1014.26
2016-07-20T01:05:33.586Z,1014.29
2016-07-20T01:05:43.582Z,1014.27
2016-07-20T01:05:53.578Z,1014.24
2016-07-20T01:06:03.573Z,1014.27
2016-07-20T01:06:13.569Z,1014.27
2016-07-20T01:06:23.563Z,1014.25
2016-07-20T01:06:33.559Z,1014.28
2016-07-20T01:06:43.560Z,1014.31
2016-07-20T01:06:53.552Z,1014.3
2016-07-20T01:07:03.548Z,1014.27
2016-07-20T01:07:13.542Z,1014.3
2016-07-20T01:07:23.539Z,1014.26
2016-07-20T01:07:33.541Z,1014.31
2016-07-20T01:07:43.530Z,1014.29
2016-07-20T01:07:53.525Z,1014.28
2016-07-20T01:08:03.522Z,1014.29
2016-07-20T01:08:13.516Z,1014.28
2016-07-20T01:08:23.511Z,1014.28
2016-07-20T01:08:33.508Z,1014.23
2016-07-20T01:08:43.500Z,1014.27
2016-07-20T01:08:53.498Z,1014.24
2016-07-20T01:09:03.502Z,1014.27
2016-07-20T01:09:13.490Z,1014.23
2016-07-20T01:09:23.484Z,1014.24
2016-07-20T01:09:33.483Z,1014.28
2016-07-20T01:09:43.475Z,1014.26
2016-07-20T01:09:53.473Z,1014.23
2016-07-20T01:10:03.468Z,1014.25
2016-07-20T01:10:13.462Z,1014.25
2016-07-20T01:10:23.460Z,1014.29
2016-07-20T01:10:33.458Z,1014.29
2016-07-20T01:10:43.449Z,1014.21
2016-07-20T01:10:53.446Z,1014.29
2016-07-20T01:11:03.443Z,1014.25
2016-07-20T01:11:13.436Z,1014.24
2016-07-20T01:11:23.436Z,1014.19
2016-07-20T01:11:33.426Z,1014.21
2016-07-20T01:11:43.424Z,1014.22
2016-07-20T01:11:53.419Z,1014.22
2016-07-20T01:12:03.416Z,1014.21
2016-07-20T01:12:13.413Z,1014.23
2016-07-20T01:12:23.409Z,1014.27
2016-07-20T01:12:33.402Z,1014.22
2016-07-20T01:12:43.397Z,1014.23
2016-07-20T01:12:53.400Z,1014.21
2016-07-20T01:13:03.390Z,1014.21
2016-07-20T01:13:13.386Z,1014.22
2016-07-20T01:13:23.381Z,1014.23
2016-07-20T01:13:33.375Z,1014.23
2016-07-20T01:13:43.380Z,1014.24
2016-07-20T01:13:53.368Z,1014.21
2016-07-20T01:14:03.364Z,1014.19
2016-07-20T01:14:13.361Z,1014.22
2016-07-20T01:14:23.356Z,1014.22
2016-07-20T01:14:33.352Z,1014.21
2016-07-20T01:14:43.347Z,1014.23
2016-07-20T01:14:53.342Z,1014.25
2016-07-20T01:15:03.338Z,1014.21
2016-07-20T01:15:13.334Z,1014.19
2016-07-20T01:15:23.332Z,1014.2
2016-07-20T01:15:33.324Z,1014.17
2016-07-20T01:15:43.320Z,1014.22
2016-07-20T01:15:53.315Z,1014.2
2016-07-20T01:16:03.322Z,1014.19
2016-07-20T01:16:13.309Z,1014.22
2016-07-20T01:16:23.304Z,1014.19
2016-07-20T01:16:33.299Z,1014.18
2016-07-20T01:16:43.295Z,1014.17
2016-07-20T01:16:53.292Z,1014.23
2016-07-20T01:17:03.285Z,1014.18
2016-07-20T01:17:13.283Z,1014.22
2016-07-20T01:17:23.282Z,1014.22
2016-07-20T01:17:33.271Z,1014.22
2016-07-20T01:17:43.269Z,1014.19
2016-07-20T01:17:53.264Z,1014.22
2016-07-20T01:18:03.261Z,1014.15
2016-07-20T01:18:13.255Z,1014.18
2016-07-20T01:18:23.249Z,1014.18
2016-07-20T01:18:33.244Z,1014.19
2016-07-20T01:18:43.242Z,1014.22
2016-07-20T01:18:53.237Z,1014.21
2016-07-20T01:19:03.233Z,1014.15
2016-07-20T01:19:13.231Z,1014.19
2016-07-20T01:19:23.223Z,1014.18
2016-07-20T01:19:33.219Z,1014.21
2016-07-20T01:19:43.215Z,1014.23
2016-07-20T01:19:53.211Z,1014.23
2016-07-20T01:20:03.206Z,1014.16
2016-07-20T01:20:13.203Z,1014.21
2016-07-20T01:20:23.197Z,1014.21
2016-07-20T01:20:33.196Z,1014.2
2016-07-20T01:20:43.195Z,1014.19
2016-07-20T01:20:53.186Z,1014.27
2016-07-20T01:21:03.183Z,1014.18
2016-07-20T01:21:13.178Z,1014.18
2016-07-20T01:21:23.173Z,1014.21
2016-07-20T01:21:33.168Z,1014.19
2016-07-20T01:21:43.164Z,1014.18
2016-07-20T01:21:53.161Z,1014.21
2016-07-20T01:22:03.155Z,1014.18
2016-07-20T01:22:13.153Z,1014.19
2016-07-20T01:22:23.147Z,1014.19
2016-07-20T01:22:33.141Z,1014.2
2016-07-20T01:22:43.140Z,1014.17
2016-07-20T01:22:53.132Z,1014.18
2016-07-20T01:23:03.132Z,1014.2
2016-07-20T01:23:13.128Z,1014.21
2016-07-20T01:23:23.123Z,1014.21
2016-07-20T01:23:33.118Z,1014.2
2016-07-20T01:23:43.113Z,1014.22
2016-07-20T01:23:53.108Z,1014.18
2016-07-20T01:24:03.105Z,1014.17
2016-07-20T01:24:13.101Z,1014.18
2016-07-20T01:24:23.094Z,1014.18
2016-07-20T01:24:33.092Z,1014.19
2016-07-20T01:24:43.086Z,1014.21
2016-07-20T01:24:53.082Z,1014.16
2016-07-20T01:25:03.079Z,1014.19
2016-07-20T01:25:13.075Z,1014.19
2016-07-20T01:25:23.070Z,1014.19
2016-07-20T01:25:33.064Z,1014.14
2016-07-20T01:25:43.061Z,1014.15
2016-07-20T01:25:53.055Z,1014.17
2016-07-20T01:26:03.053Z,1014.14
2016-07-20T01:26:13.048Z,1014.15
2016-07-20T01:26:23.045Z,1014.15
2016-07-20T01:26:33.040Z,1014.12
2016-07-20T01:26:43.033Z,1014.15
2016-07-20T01:26:53.027Z,1014.11
2016-07-20T01:27:03.025Z,1014.17
2016-07-20T01:27:13.018Z,1014.15
2016-07-20T01:27:23.018Z,1014.17
2016-07-20T01:27:33.010Z,1014.12
2016-07-20T01:27:43.006Z,1014.11
2016-07-20T01:27:53.006Z,1014.13
2016-07-20T01:28:02.997Z,1014.14
2016-07-20T01:28:12.994Z,1014.15
2016-07-20T01:28:22.987Z,1014.14
2016-07-20T01:28:32.986Z,1014.19
2016-07-20T01:28:42.982Z,1014.15
2016-07-20T01:28:52.978Z,1014.09
2016-07-20T01:29:02.972Z,1014.14
2016-07-20T01:29:12.968Z,1014.12
2016-07-20T01:29:22.964Z,1014.09
2016-07-20T01:29:32.960Z,1014.1
2016-07-20T01:29:42.961Z,1014.14
2016-07-20T01:29:53.680Z,1014.05
2016-07-20T01:30:02.948Z,1014.12
2016-07-20T01:30:12.944Z,1014.09
2016-07-20T01:30:22.942Z,1014.13
2016-07-20T01:30:32.936Z,1014.1
2016-07-20T01:30:42.931Z,1014.09
2016-07-20T01:30:52.926Z,1014.04
2016-07-20T01:31:02.921Z,1014.06
2016-07-20T01:31:12.916Z,1014.06
2016-07-20T01:31:22.912Z,1014.08
2016-07-20T01:31:32.910Z,1014.05
2016-07-20T01:31:42.903Z,1014.09
2016-07-20T01:31:52.901Z,1014.1
2016-07-20T01:32:02.899Z,1014.08
2016-07-20T01:32:12.893Z,1014.05
2016-07-20T01:32:22.887Z,1014.1
2016-07-20T01:32:32.883Z,1014.09
2016-07-20T01:32:42.879Z,1014.03
2016-07-20T01:32:52.870Z,1014.08
2016-07-20T01:33:02.871Z,1014.11
2016-07-20T01:33:12.863Z,1014.09
2016-07-20T01:33:22.858Z,1014.07
2016-07-20T01:33:32.857Z,1014.05
2016-07-20T01:33:42.851Z,1014.01
2016-07-20T01:33:52.846Z,1014.07
2016-07-20T01:34:03.052Z,1014.03
2016-07-20T01:34:12.837Z,1014.05
2016-07-20T01:34:22.832Z,1014.06
2016-07-20T01:34:32.828Z,1014.08
2016-07-20T01:34:42.826Z,1014.06
2016-07-20T01:34:52.820Z,1014.04
2016-07-20T01:35:02.817Z,1014
2016-07-20T01:35:12.814Z,1014.07
2016-07-20T01:35:22.807Z,1014.1
2016-07-20T01:35:32.803Z,1014.05
2016-07-20T01:35:42.799Z,1014.11
2016-07-20T01:35:52.793Z,1014.11
2016-07-20T01:36:02.790Z,1014.11
2016-07-20T01:36:12.786Z,1014.05
2016-07-20T01:36:22.782Z,1014.05
2016-07-20T01:36:32.777Z,1014.07
2016-07-20T01:36:42.774Z,1014.05
2016-07-20T01:36:52.767Z,1014.11
2016-07-20T01:37:02.768Z,1014.04
2016-07-20T01:37:12.760Z,1014.04
2016-07-20T01:37:22.756Z,1014.02
2016-07-20T01:37:32.753Z,1014.02
2016-07-20T01:37:42.748Z,1014.03
2016-07-20T01:37:52.742Z,1013.98
2016-07-20T01:38:02.739Z,1013.96
2016-07-20T01:38:12.733Z,1014.03
2016-07-20T01:38:22.731Z,1014.05
2016-07-20T01:38:32.727Z,1014.04
2016-07-20T01:38:42.723Z,1014.03
2016-07-20T01:38:52.719Z,1013.98
2016-07-20T01:39:02.713Z,1014.03
2016-07-20T01:39:12.706Z,1014.01
2016-07-20T01:39:22.703Z,1014.01
2016-07-20T01:39:32.699Z,1013.97
2016-07-20T01:39:42.697Z,1013.97
2016-07-20T01:39:52.692Z,1014.02
2016-07-20T01:40:02.693Z,1014
2016-07-20T01:40:12.681Z,1014.02
2016-07-20T01:40:22.677Z,1013.97
2016-07-20T01:40:32.672Z,1014.02
2016-07-20T01:40:42.669Z,1013.99
2016-07-20T01:40:52.664Z,1013.99
2016-07-20T01:41:02.661Z,1013.99
2016-07-20T01:41:12.656Z,1014.02
2016-07-20T01:41:22.651Z,1013.96
2016-07-20T01:41:32.648Z,1014
2016-07-20T01:41:42.642Z,1014
2016-07-20T01:41:52.639Z,1013.96
2016-07-20T01:42:02.635Z,1013.95
2016-07-20T01:42:12.634Z,1013.97
2016-07-20T01:42:22.627Z,1013.96
2016-07-20T01:42:32.620Z,1013.99
2016-07-20T01:42:42.617Z,1013.96
2016-07-20T01:42:52.613Z,1013.97
2016-07-20T01:43:02.606Z,1013.97
2016-07-20T01:43:12.602Z,1013.98
2016-07-20T01:43:22.603Z,1013.98
2016-07-20T01:43:32.597Z,1013.95
2016-07-20T01:43:42.590Z,1013.92
2016-07-20T01:43:52.590Z,1013.95
2016-07-20T01:44:02.581Z,1013.93
2016-07-20T01:44:12.578Z,1013.94
2016-07-20T01:44:22.572Z,1013.92
2016-07-20T01:44:32.569Z,1013.95
2016-07-20T01:44:42.565Z,1013.92
2016-07-20T01:44:52.560Z,1013.9
2016-07-20T01:45:02.556Z,1013.89
2016-07-20T01:45:12.550Z,1013.92
2016-07-20T01:45:22.547Z,1013.92
2016-07-20T01:45:32.549Z,1013.93
2016-07-20T01:45:42.538Z,1013.96
2016-07-20T01:45:52.534Z,1013.94
2016-07-20T01:46:02.537Z,1013.98
2016-07-20T01:46:12.525Z,1013.98
2016-07-20T01:46:22.520Z,1014
2016-07-20T01:46:32.517Z,1013.97
2016-07-20T01:46:42.513Z,1013.9
2016-07-20T01:46:52.507Z,1013.91
2016-07-20T01:47:02.505Z,1013.9
2016-07-20T01:47:12.500Z,1013.9
2016-07-20T01:47:22.495Z,1013.96
2016-07-20T01:47:32.490Z,1013.95
2016-07-20T01:47:42.487Z,1013.93
2016-07-20T01:47:52.482Z,1013.94
2016-07-20T01:48:02.479Z,1013.91
2016-07-20T01:48:12.475Z,1013.94
2016-07-20T01:48:22.466Z,1013.95
2016-07-20T01:48:32.463Z,1013.93
2016-07-20T01:48:42.460Z,1013.91
2016-07-20T01:48:52.455Z,1013.88
2016-07-20T01:49:02.451Z,1013.92
2016-07-20T01:49:12.450Z,1013.91
2016-07-20T01:49:23.170Z,1013.91
2016-07-20T01:49:32.438Z,1013.89
2016-07-20T01:49:42.433Z,1013.9
2016-07-20T01:49:52.428Z,1013.9
2016-07-20T01:50:02.426Z,1013.88
2016-07-20T01:50:12.419Z,1013.92
2016-07-20T01:50:22.421Z,1013.89
2016-07-20T01:50:32.413Z,1013.85
2016-07-20T01:50:42.406Z,1013.88
2016-07-20T01:50:52.403Z,1013.87
2016-07-20T01:51:02.405Z,1013.9
2016-07-20T01:51:12.395Z,1013.87
2016-07-20T01:51:22.389Z,1013.83
2016-07-20T01:51:32.382Z,1013.9
2016-07-20T01:51:42.383Z,1013.89
2016-07-20T01:51:52.377Z,1013.91
2016-07-20T01:52:02.384Z,1013.9
2016-07-20T01:52:12.368Z,1013.88
2016-07-20T01:52:22.363Z,1013.87
2016-07-20T01:52:32.362Z,1013.89
2016-07-20T01:52:42.356Z,1013.88
2016-07-20T01:52:52.352Z,1013.85
2016-07-20T01:53:02.347Z,1013.88
2016-07-20T01:53:12.343Z,1013.86
2016-07-20T01:53:23.067Z,1013.88
2016-07-20T01:53:32.336Z,1013.89
2016-07-20T01:53:42.331Z,1013.87
2016-07-20T01:53:52.331Z,1013.87
2016-07-20T01:54:02.321Z,1013.85
2016-07-20T01:54:12.317Z,1013.83
2016-07-20T01:54:22.312Z,1013.86
2016-07-20T01:54:32.310Z,1013.86
2016-07-20T01:54:42.303Z,1013.84
2016-07-20T01:54:52.300Z,1013.86
2016-07-20T01:55:02.294Z,1013.83
2016-07-20T01:55:12.289Z,1013.87
2016-07-20T01:55:22.286Z,1013.83
2016-07-20T01:55:32.281Z,1013.81
2016-07-20T01:55:42.278Z,1013.86
2016-07-20T01:55:52.273Z,1013.85
2016-07-20T01:56:02.270Z,1013.86
2016-07-20T01:56:12.263Z,1013.84
2016-07-20T01:56:22.258Z,1013.86
2016-07-20T01:56:32.255Z,1013.88
2016-07-20T01:56:42.251Z,1013.84
2016-07-20T01:56:52.246Z,1013.82
2016-07-20T01:57:02.245Z,1013.87
2016-07-20T01:57:12.238Z,1013.82
2016-07-20T01:57:22.231Z,1013.84
2016-07-20T01:57:32.231Z,1013.8
2016-07-20T01:57:42.225Z,1013.8
2016-07-20T01:57:52.220Z,1013.81
2016-07-20T01:58:02.217Z,1013.73
2016-07-20T01:58:12.212Z,1013.82
2016-07-20T01:58:22.205Z,1013.8
2016-07-20T01:58:32.201Z,1013.77
2016-07-20T01:58:42.200Z,1013.81
2016-07-20T01:58:52.192Z,1013.79
2016-07-20T01:59:02.189Z,1013.77
2016-07-20T01:59:12.192Z,1013.81
2016-07-20T01:59:22.180Z,1013.79
2016-07-20T01:59:32.177Z,1013.79
2016-07-20T01:59:42.173Z,1013.79
2016-07-20T01:59:52.168Z,1013.74
2016-07-20T02:00:02.165Z,1013.73
2016-07-20T02:00:12.161Z,1013.75
2016-07-20T02:00:22.154Z,1013.74
2016-07-20T02:00:32.152Z,1013.76
2016-07-20T02:00:42.147Z,1013.73
2016-07-20T02:00:52.141Z,1013.73
2016-07-20T02:01:02.138Z,1013.74
2016-07-20T02:01:12.134Z,1013.79
2016-07-20T02:01:22.132Z,1013.77